sensor_id;sensor_type;location;lat;lon;timestamp;P1;durP1;ratioP1;P2;durP2;ratioP2
17818;SDS011;9034;50.284;19.310;2023-04-26T00:01:00;7.88;;;4.38;;
17818;SDS011;9034;50.284;19.310;2023-04-26T00:02:06;8.05;;;4.18;;
17818;SDS011;9034;50.284;19.310;2023-04-26T00:03:08;9.38;;;3.92;;
17818;SDS011;9034;50.284;19.310;2023-04-26T00:04:13;11.35;;;3.00;;
17818;SDS011;9034;50.284;19.310;2023-04-26T00:05:16;5.72;;;3.38;;
17818;SDS011;9034;50.284;19.310;2023-04-26T00:06:20;7.68;;;3.97;;
17818;SDS011;9034;50.284;19.310;2023-04-26T00:07:21;10.25;;;4.00;;
17818;SDS011;9034;50.284;19.310;2023-04-26T00:08:25;7.60;;;4.13;;
17818;SDS011;9034;50.284;19.310;2023-04-26T00:09:26;8.43;;;3.97;;
17818;SDS011;9034;50.284;19.310;2023-04-26T00:10:29;12.63;;;3.60;;
17818;SDS011;9034;50.284;19.310;2023-04-26T00:11:31;10.13;;;3.95;;
17818;SDS011;9034;50.284;19.310;2023-04-26T00:12:34;7.32;;;4.03;;
17818;SDS011;9034;50.284;19.310;2023-04-26T00:13:37;9.35;;;3.63;;
17818;SDS011;9034;50.284;19.310;2023-04-26T00:14:40;9.40;;;5.03;;
17818;SDS011;9034;50.284;19.310;2023-04-26T00:15:41;8.07;;;4.05;;
17818;SDS011;9034;50.284;19.310;2023-04-26T00:16:44;7.35;;;4.10;;
17818;SDS011;9034;50.284;19.310;2023-04-26T00:17:48;7.88;;;4.10;;
17818;SDS011;9034;50.284;19.310;2023-04-26T00:18:51;8.77;;;3.90;;
17818;SDS011;9034;50.284;19.310;2023-04-26T00:19:53;8.07;;;4.10;;
17818;SDS011;9034;50.284;19.310;2023-04-26T00:20:57;6.57;;;3.50;;
17818;SDS011;9034;50.284;19.310;2023-04-26T00:21:59;11.48;;;4.35;;
17818;SDS011;9034;50.284;19.310;2023-04-26T00:23:02;9.98;;;4.88;;
17818;SDS011;9034;50.284;19.310;2023-04-26T00:24:05;8.98;;;4.15;;
17818;SDS011;9034;50.284;19.310;2023-04-26T00:25:08;12.63;;;4.20;;
17818;SDS011;9034;50.284;19.310;2023-04-26T00:26:11;9.68;;;4.43;;
17818;SDS011;9034;50.284;19.310;2023-04-26T00:27:13;9.10;;;4.25;;
17818;SDS011;9034;50.284;19.310;2023-04-26T00:28:16;11.05;;;4.70;;
17818;SDS011;9034;50.284;19.310;2023-04-26T00:29:18;8.77;;;3.70;;
17818;SDS011;9034;50.284;19.310;2023-04-26T00:30:21;9.80;;;3.92;;
17818;SDS011;9034;50.284;19.310;2023-04-26T00:31:23;7.35;;;3.97;;
17818;SDS011;9034;50.284;19.310;2023-04-26T00:32:26;8.05;;;4.43;;
17818;SDS011;9034;50.284;19.310;2023-04-26T00:33:29;11.52;;;4.80;;
17818;SDS011;9034;50.284;19.310;2023-04-26T00:34:32;9.05;;;4.60;;
17818;SDS011;9034;50.284;19.310;2023-04-26T00:35:34;9.75;;;4.93;;
17818;SDS011;9034;50.284;19.310;2023-04-26T00:36:37;11.15;;;4.65;;
17818;SDS011;9034;50.284;19.310;2023-04-26T00:37:39;7.85;;;4.55;;
17818;SDS011;9034;50.284;19.310;2023-04-26T00:38:42;11.13;;;4.47;;
17818;SDS011;9034;50.284;19.310;2023-04-26T00:39:44;11.30;;;4.65;;
17818;SDS011;9034;50.284;19.310;2023-04-26T00:40:47;11.00;;;5.32;;
17818;SDS011;9034;50.284;19.310;2023-04-26T00:41:49;8.75;;;4.25;;
17818;SDS011;9034;50.284;19.310;2023-04-26T00:42:55;9.98;;;4.70;;
17818;SDS011;9034;50.284;19.310;2023-04-26T00:43:57;9.60;;;4.43;;
17818;SDS011;9034;50.284;19.310;2023-04-26T00:45:00;7.22;;;4.38;;
17818;SDS011;9034;50.284;19.310;2023-04-26T00:46:02;7.78;;;4.72;;
17818;SDS011;9034;50.284;19.310;2023-04-26T00:47:05;14.73;;;4.53;;
17818;SDS011;9034;50.284;19.310;2023-04-26T00:48:07;9.05;;;4.25;;
17818;SDS011;9034;50.284;19.310;2023-04-26T00:49:11;9.25;;;4.13;;
17818;SDS011;9034;50.284;19.310;2023-04-26T00:50:17;7.88;;;4.40;;
17818;SDS011;9034;50.284;19.310;2023-04-26T00:51:20;9.85;;;4.28;;
17818;SDS011;9034;50.284;19.310;2023-04-26T00:52:22;14.45;;;4.68;;
17818;SDS011;9034;50.284;19.310;2023-04-26T00:53:25;10.68;;;4.63;;
17818;SDS011;9034;50.284;19.310;2023-04-26T00:54:27;14.27;;;4.57;;
17818;SDS011;9034;50.284;19.310;2023-04-26T00:55:30;9.13;;;4.30;;
17818;SDS011;9034;50.284;19.310;2023-04-26T00:56:32;11.90;;;4.45;;
17818;SDS011;9034;50.284;19.310;2023-04-26T00:57:35;7.35;;;4.28;;
17818;SDS011;9034;50.284;19.310;2023-04-26T00:58:37;7.57;;;4.18;;
17818;SDS011;9034;50.284;19.310;2023-04-26T00:59:40;8.65;;;4.60;;
17818;SDS011;9034;50.284;19.310;2023-04-26T01:00:42;9.63;;;4.28;;
17818;SDS011;9034;50.284;19.310;2023-04-26T01:01:45;8.88;;;4.18;;
17818;SDS011;9034;50.284;19.310;2023-04-26T01:02:48;10.25;;;4.00;;
17818;SDS011;9034;50.284;19.310;2023-04-26T01:03:51;8.23;;;4.70;;
17818;SDS011;9034;50.284;19.310;2023-04-26T01:04:55;12.25;;;4.50;;
17818;SDS011;9034;50.284;19.310;2023-04-26T01:05:58;7.40;;;4.20;;
17818;SDS011;9034;50.284;19.310;2023-04-26T01:07:00;11.10;;;4.05;;
17818;SDS011;9034;50.284;19.310;2023-04-26T01:08:06;11.50;;;4.32;;
17818;SDS011;9034;50.284;19.310;2023-04-26T01:09:08;9.95;;;4.18;;
17818;SDS011;9034;50.284;19.310;2023-04-26T01:10:15;13.15;;;4.60;;
17818;SDS011;9034;50.284;19.310;2023-04-26T01:11:18;12.90;;;4.80;;
17818;SDS011;9034;50.284;19.310;2023-04-26T01:12:20;11.35;;;4.63;;
17818;SDS011;9034;50.284;19.310;2023-04-26T01:13:24;10.95;;;4.13;;
17818;SDS011;9034;50.284;19.310;2023-04-26T01:14:27;13.63;;;4.72;;
17818;SDS011;9034;50.284;19.310;2023-04-26T01:15:30;9.90;;;4.35;;
17818;SDS011;9034;50.284;19.310;2023-04-26T01:16:33;14.60;;;5.30;;
17818;SDS011;9034;50.284;19.310;2023-04-26T01:17:36;9.95;;;4.93;;
17818;SDS011;9034;50.284;19.310;2023-04-26T01:18:39;11.27;;;3.92;;
17818;SDS011;9034;50.284;19.310;2023-04-26T01:19:46;12.52;;;4.30;;
17818;SDS011;9034;50.284;19.310;2023-04-26T01:20:49;9.35;;;4.25;;
17818;SDS011;9034;50.284;19.310;2023-04-26T01:21:53;8.30;;;4.70;;
17818;SDS011;9034;50.284;19.310;2023-04-26T01:22:56;12.13;;;4.97;;
17818;SDS011;9034;50.284;19.310;2023-04-26T01:23:59;9.88;;;4.82;;
17818;SDS011;9034;50.284;19.310;2023-04-26T01:25:02;7.97;;;4.97;;
17818;SDS011;9034;50.284;19.310;2023-04-26T01:26:08;12.32;;;4.57;;
17818;SDS011;9034;50.284;19.310;2023-04-26T01:27:09;7.85;;;4.68;;
17818;SDS011;9034;50.284;19.310;2023-04-26T01:28:14;8.18;;;4.13;;
17818;SDS011;9034;50.284;19.310;2023-04-26T01:29:16;12.40;;;5.57;;
17818;SDS011;9034;50.284;19.310;2023-04-26T01:30:20;11.52;;;5.15;;
17818;SDS011;9034;50.284;19.310;2023-04-26T01:31:22;12.65;;;5.35;;
17818;SDS011;9034;50.284;19.310;2023-04-26T01:32:25;12.18;;;4.82;;
17818;SDS011;9034;50.284;19.310;2023-04-26T01:33:27;9.18;;;4.65;;
17818;SDS011;9034;50.284;19.310;2023-04-26T01:34:30;9.13;;;4.93;;
17818;SDS011;9034;50.284;19.310;2023-04-26T01:35:33;13.90;;;4.97;;
17818;SDS011;9034;50.284;19.310;2023-04-26T01:36:36;12.30;;;5.07;;
17818;SDS011;9034;50.284;19.310;2023-04-26T01:37:38;11.05;;;5.63;;
17818;SDS011;9034;50.284;19.310;2023-04-26T01:38:42;12.32;;;5.40;;
17818;SDS011;9034;50.284;19.310;2023-04-26T01:39:44;11.27;;;4.50;;
17818;SDS011;9034;50.284;19.310;2023-04-26T01:40:47;19.88;;;9.23;;
17818;SDS011;9034;50.284;19.310;2023-04-26T01:41:48;11.93;;;5.57;;
17818;SDS011;9034;50.284;19.310;2023-04-26T01:42:51;14.13;;;6.15;;
17818;SDS011;9034;50.284;19.310;2023-04-26T01:43:54;14.40;;;4.97;;
17818;SDS011;9034;50.284;19.310;2023-04-26T01:44:56;11.05;;;5.80;;
17818;SDS011;9034;50.284;19.310;2023-04-26T01:45:59;11.82;;;5.28;;
17818;SDS011;9034;50.284;19.310;2023-04-26T01:47:03;12.55;;;5.80;;
17818;SDS011;9034;50.284;19.310;2023-04-26T01:48:06;10.35;;;5.05;;
17818;SDS011;9034;50.284;19.310;2023-04-26T01:49:09;11.10;;;5.10;;
17818;SDS011;9034;50.284;19.310;2023-04-26T01:50:12;12.57;;;5.40;;
17818;SDS011;9034;50.284;19.310;2023-04-26T01:51:13;14.38;;;5.20;;
17818;SDS011;9034;50.284;19.310;2023-04-26T01:52:16;10.65;;;5.55;;
17818;SDS011;9034;50.284;19.310;2023-04-26T01:53:19;11.40;;;4.85;;
17818;SDS011;9034;50.284;19.310;2023-04-26T01:54:23;8.52;;;4.80;;
17818;SDS011;9034;50.284;19.310;2023-04-26T01:55:26;12.50;;;5.10;;
17818;SDS011;9034;50.284;19.310;2023-04-26T01:56:29;18.88;;;4.78;;
17818;SDS011;9034;50.284;19.310;2023-04-26T01:57:34;11.52;;;5.25;;
17818;SDS011;9034;50.284;19.310;2023-04-26T01:58:36;13.20;;;5.75;;
17818;SDS011;9034;50.284;19.310;2023-04-26T01:59:38;12.85;;;5.07;;
17818;SDS011;9034;50.284;19.310;2023-04-26T02:00:41;12.85;;;5.15;;
17818;SDS011;9034;50.284;19.310;2023-04-26T02:01:44;12.75;;;4.43;;
17818;SDS011;9034;50.284;19.310;2023-04-26T02:02:47;11.13;;;4.40;;
17818;SDS011;9034;50.284;19.310;2023-04-26T02:03:49;11.07;;;4.40;;
17818;SDS011;9034;50.284;19.310;2023-04-26T02:04:53;11.82;;;4.13;;
17818;SDS011;9034;50.284;19.310;2023-04-26T02:05:57;10.40;;;4.80;;
17818;SDS011;9034;50.284;19.310;2023-04-26T02:07:02;14.75;;;4.72;;
17818;SDS011;9034;50.284;19.310;2023-04-26T02:08:04;9.57;;;3.95;;
17818;SDS011;9034;50.284;19.310;2023-04-26T02:09:10;11.85;;;4.63;;
17818;SDS011;9034;50.284;19.310;2023-04-26T02:10:15;11.55;;;4.15;;
17818;SDS011;9034;50.284;19.310;2023-04-26T02:11:18;8.63;;;3.80;;
17818;SDS011;9034;50.284;19.310;2023-04-26T02:12:20;8.90;;;4.03;;
17818;SDS011;9034;50.284;19.310;2023-04-26T02:13:23;6.57;;;3.92;;
17818;SDS011;9034;50.284;19.310;2023-04-26T02:14:25;8.95;;;4.30;;
17818;SDS011;9034;50.284;19.310;2023-04-26T02:15:28;6.40;;;3.92;;
17818;SDS011;9034;50.284;19.310;2023-04-26T02:16:30;11.77;;;3.97;;
17818;SDS011;9034;50.284;19.310;2023-04-26T02:17:33;11.38;;;3.80;;
17818;SDS011;9034;50.284;19.310;2023-04-26T02:18:35;10.20;;;4.30;;
17818;SDS011;9034;50.284;19.310;2023-04-26T02:19:37;9.85;;;3.92;;
17818;SDS011;9034;50.284;19.310;2023-04-26T02:20:39;9.95;;;4.05;;
17818;SDS011;9034;50.284;19.310;2023-04-26T02:21:50;12.35;;;3.72;;
17818;SDS011;9034;50.284;19.310;2023-04-26T02:22:53;7.55;;;3.60;;
17818;SDS011;9034;50.284;19.310;2023-04-26T02:23:55;6.57;;;3.55;;
17818;SDS011;9034;50.284;19.310;2023-04-26T02:24:57;9.93;;;3.63;;
17818;SDS011;9034;50.284;19.310;2023-04-26T02:26:02;8.90;;;3.63;;
17818;SDS011;9034;50.284;19.310;2023-04-26T02:27:04;10.85;;;5.53;;
17818;SDS011;9034;50.284;19.310;2023-04-26T02:28:08;12.75;;;4.03;;
17818;SDS011;9034;50.284;19.310;2023-04-26T02:29:10;10.50;;;4.15;;
17818;SDS011;9034;50.284;19.310;2023-04-26T02:30:13;8.65;;;3.97;;
17818;SDS011;9034;50.284;19.310;2023-04-26T02:31:15;12.70;;;4.68;;
17818;SDS011;9034;50.284;19.310;2023-04-26T02:32:18;7.10;;;4.10;;
17818;SDS011;9034;50.284;19.310;2023-04-26T02:33:20;12.95;;;4.63;;
17818;SDS011;9034;50.284;19.310;2023-04-26T02:34:23;7.45;;;3.80;;
17818;SDS011;9034;50.284;19.310;2023-04-26T02:35:25;7.97;;;3.33;;
17818;SDS011;9034;50.284;19.310;2023-04-26T02:36:28;9.25;;;3.95;;
17818;SDS011;9034;50.284;19.310;2023-04-26T02:37:31;8.18;;;4.20;;
17818;SDS011;9034;50.284;19.310;2023-04-26T02:38:34;7.90;;;3.92;;
17818;SDS011;9034;50.284;19.310;2023-04-26T02:39:38;9.65;;;4.32;;
17818;SDS011;9034;50.284;19.310;2023-04-26T02:40:41;12.07;;;3.75;;
17818;SDS011;9034;50.284;19.310;2023-04-26T02:41:46;9.32;;;4.43;;
17818;SDS011;9034;50.284;19.310;2023-04-26T02:42:49;10.00;;;3.92;;
17818;SDS011;9034;50.284;19.310;2023-04-26T02:43:51;10.15;;;4.35;;
17818;SDS011;9034;50.284;19.310;2023-04-26T02:44:54;11.02;;;4.40;;
17818;SDS011;9034;50.284;19.310;2023-04-26T02:45:56;13.45;;;4.68;;
17818;SDS011;9034;50.284;19.310;2023-04-26T02:47:01;14.05;;;4.45;;
17818;SDS011;9034;50.284;19.310;2023-04-26T02:48:03;10.35;;;4.07;;
17818;SDS011;9034;50.284;19.310;2023-04-26T02:49:07;10.35;;;5.10;;
17818;SDS011;9034;50.284;19.310;2023-04-26T02:50:09;9.45;;;4.60;;
17818;SDS011;9034;50.284;19.310;2023-04-26T02:51:13;11.90;;;5.43;;
17818;SDS011;9034;50.284;19.310;2023-04-26T02:52:14;9.35;;;4.50;;
17818;SDS011;9034;50.284;19.310;2023-04-26T02:53:17;12.98;;;5.80;;
17818;SDS011;9034;50.284;19.310;2023-04-26T02:54:19;10.50;;;6.05;;
17818;SDS011;9034;50.284;19.310;2023-04-26T02:55:23;11.00;;;5.65;;
17818;SDS011;9034;50.284;19.310;2023-04-26T02:56:25;10.90;;;5.25;;
17818;SDS011;9034;50.284;19.310;2023-04-26T02:57:30;12.05;;;5.25;;
17818;SDS011;9034;50.284;19.310;2023-04-26T02:58:32;7.35;;;5.03;;
17818;SDS011;9034;50.284;19.310;2023-04-26T02:59:34;15.05;;;6.22;;
17818;SDS011;9034;50.284;19.310;2023-04-26T03:00:37;10.82;;;4.57;;
17818;SDS011;9034;50.284;19.310;2023-04-26T03:01:40;9.68;;;3.97;;
17818;SDS011;9034;50.284;19.310;2023-04-26T03:02:42;9.23;;;5.07;;
17818;SDS011;9034;50.284;19.310;2023-04-26T03:03:45;9.45;;;4.72;;
17818;SDS011;9034;50.284;19.310;2023-04-26T03:04:47;12.00;;;4.70;;
17818;SDS011;9034;50.284;19.310;2023-04-26T03:05:49;10.80;;;4.45;;
17818;SDS011;9034;50.284;19.310;2023-04-26T03:06:51;14.02;;;4.95;;
17818;SDS011;9034;50.284;19.310;2023-04-26T03:07:54;10.27;;;4.50;;
17818;SDS011;9034;50.284;19.310;2023-04-26T03:08:56;16.70;;;4.47;;
17818;SDS011;9034;50.284;19.310;2023-04-26T03:09:59;7.30;;;4.35;;
17818;SDS011;9034;50.284;19.310;2023-04-26T03:11:03;8.93;;;4.80;;
17818;SDS011;9034;50.284;19.310;2023-04-26T03:12:06;9.75;;;4.68;;
17818;SDS011;9034;50.284;19.310;2023-04-26T03:13:10;10.48;;;3.95;;
17818;SDS011;9034;50.284;19.310;2023-04-26T03:14:14;8.55;;;4.00;;
17818;SDS011;9034;50.284;19.310;2023-04-26T03:15:16;9.02;;;4.22;;
17818;SDS011;9034;50.284;19.310;2023-04-26T03:16:19;8.43;;;4.80;;
17818;SDS011;9034;50.284;19.310;2023-04-26T03:17:21;9.90;;;5.05;;
17818;SDS011;9034;50.284;19.310;2023-04-26T03:18:24;7.38;;;4.28;;
17818;SDS011;9034;50.284;19.310;2023-04-26T03:19:26;7.57;;;4.13;;
17818;SDS011;9034;50.284;19.310;2023-04-26T03:20:29;7.55;;;3.90;;
17818;SDS011;9034;50.284;19.310;2023-04-26T03:21:32;9.75;;;4.70;;
17818;SDS011;9034;50.284;19.310;2023-04-26T03:22:35;5.95;;;4.85;;
17818;SDS011;9034;50.284;19.310;2023-04-26T03:23:38;10.57;;;4.40;;
17818;SDS011;9034;50.284;19.310;2023-04-26T03:24:41;9.50;;;4.15;;
17818;SDS011;9034;50.284;19.310;2023-04-26T03:25:43;8.15;;;4.32;;
17818;SDS011;9034;50.284;19.310;2023-04-26T03:26:46;11.13;;;4.65;;
17818;SDS011;9034;50.284;19.310;2023-04-26T03:27:48;19.40;;;8.10;;
17818;SDS011;9034;50.284;19.310;2023-04-26T03:28:52;10.43;;;4.55;;
17818;SDS011;9034;50.284;19.310;2023-04-26T03:29:55;9.85;;;4.35;;
17818;SDS011;9034;50.284;19.310;2023-04-26T03:30:58;14.90;;;6.30;;
17818;SDS011;9034;50.284;19.310;2023-04-26T03:31:59;13.98;;;6.35;;
17818;SDS011;9034;50.284;19.310;2023-04-26T03:33:02;18.23;;;6.60;;
17818;SDS011;9034;50.284;19.310;2023-04-26T03:34:04;16.13;;;6.35;;
17818;SDS011;9034;50.284;19.310;2023-04-26T03:35:08;13.80;;;7.30;;
17818;SDS011;9034;50.284;19.310;2023-04-26T03:36:10;11.95;;;5.45;;
17818;SDS011;9034;50.284;19.310;2023-04-26T03:37:13;8.65;;;4.32;;
17818;SDS011;9034;50.284;19.310;2023-04-26T03:38:17;12.18;;;4.57;;
17818;SDS011;9034;50.284;19.310;2023-04-26T03:39:20;8.52;;;5.07;;
17818;SDS011;9034;50.284;19.310;2023-04-26T03:40:22;7.30;;;4.47;;
17818;SDS011;9034;50.284;19.310;2023-04-26T03:41:25;9.52;;;5.15;;
17818;SDS011;9034;50.284;19.310;2023-04-26T03:42:28;11.65;;;5.88;;
17818;SDS011;9034;50.284;19.310;2023-04-26T03:43:31;8.55;;;5.57;;
17818;SDS011;9034;50.284;19.310;2023-04-26T03:44:35;10.85;;;5.82;;
17818;SDS011;9034;50.284;19.310;2023-04-26T03:45:38;10.52;;;5.38;;
17818;SDS011;9034;50.284;19.310;2023-04-26T03:46:40;12.45;;;5.78;;
17818;SDS011;9034;50.284;19.310;2023-04-26T03:47:43;7.50;;;4.50;;
17818;SDS011;9034;50.284;19.310;2023-04-26T03:48:45;10.10;;;5.65;;
17818;SDS011;9034;50.284;19.310;2023-04-26T03:49:48;7.80;;;4.65;;
17818;SDS011;9034;50.284;19.310;2023-04-26T03:50:49;8.02;;;4.85;;
17818;SDS011;9034;50.284;19.310;2023-04-26T03:51:52;8.77;;;4.22;;
17818;SDS011;9034;50.284;19.310;2023-04-26T03:52:54;11.07;;;5.20;;
17818;SDS011;9034;50.284;19.310;2023-04-26T03:53:57;16.75;;;6.43;;
17818;SDS011;9034;50.284;19.310;2023-04-26T03:54:59;9.63;;;5.00;;
17818;SDS011;9034;50.284;19.310;2023-04-26T03:56:02;7.88;;;4.93;;
17818;SDS011;9034;50.284;19.310;2023-04-26T03:57:06;14.02;;;5.03;;
17818;SDS011;9034;50.284;19.310;2023-04-26T03:58:08;11.23;;;5.07;;
17818;SDS011;9034;50.284;19.310;2023-04-26T03:59:10;12.13;;;5.07;;
17818;SDS011;9034;50.284;19.310;2023-04-26T04:00:15;11.10;;;4.75;;
17818;SDS011;9034;50.284;19.310;2023-04-26T04:01:17;8.52;;;4.95;;
17818;SDS011;9034;50.284;19.310;2023-04-26T04:02:20;11.25;;;4.85;;
17818;SDS011;9034;50.284;19.310;2023-04-26T04:03:22;8.15;;;5.20;;
17818;SDS011;9034;50.284;19.310;2023-04-26T04:04:25;15.98;;;5.95;;
17818;SDS011;9034;50.284;19.310;2023-04-26T04:05:28;11.25;;;6.70;;
17818;SDS011;9034;50.284;19.310;2023-04-26T04:06:32;13.52;;;6.07;;
17818;SDS011;9034;50.284;19.310;2023-04-26T04:07:34;17.67;;;6.40;;
17818;SDS011;9034;50.284;19.310;2023-04-26T04:08:37;14.30;;;6.40;;
17818;SDS011;9034;50.284;19.310;2023-04-26T04:09:39;13.48;;;5.85;;
17818;SDS011;9034;50.284;19.310;2023-04-26T04:10:42;11.07;;;5.30;;
17818;SDS011;9034;50.284;19.310;2023-04-26T04:11:44;13.52;;;6.50;;
17818;SDS011;9034;50.284;19.310;2023-04-26T04:12:48;11.07;;;6.10;;
17818;SDS011;9034;50.284;19.310;2023-04-26T04:13:50;13.90;;;6.50;;
17818;SDS011;9034;50.284;19.310;2023-04-26T04:14:53;10.85;;;5.30;;
17818;SDS011;9034;50.284;19.310;2023-04-26T04:16:01;14.35;;;5.43;;
17818;SDS011;9034;50.284;19.310;2023-04-26T04:17:05;12.43;;;5.45;;
17818;SDS011;9034;50.284;19.310;2023-04-26T04:18:07;14.32;;;5.30;;
17818;SDS011;9034;50.284;19.310;2023-04-26T04:19:10;9.98;;;5.45;;
17818;SDS011;9034;50.284;19.310;2023-04-26T04:20:12;10.85;;;5.30;;
17818;SDS011;9034;50.284;19.310;2023-04-26T04:21:16;11.48;;;5.45;;
17818;SDS011;9034;50.284;19.310;2023-04-26T04:22:18;8.18;;;5.53;;
17818;SDS011;9034;50.284;19.310;2023-04-26T04:23:21;13.70;;;6.82;;
17818;SDS011;9034;50.284;19.310;2023-04-26T04:24:22;13.70;;;6.10;;
17818;SDS011;9034;50.284;19.310;2023-04-26T04:25:26;9.75;;;5.50;;
17818;SDS011;9034;50.284;19.310;2023-04-26T04:26:31;7.60;;;5.07;;
17818;SDS011;9034;50.284;19.310;2023-04-26T04:27:34;12.13;;;5.25;;
17818;SDS011;9034;50.284;19.310;2023-04-26T04:28:37;9.93;;;5.07;;
17818;SDS011;9034;50.284;19.310;2023-04-26T04:29:41;10.77;;;5.38;;
17818;SDS011;9034;50.284;19.310;2023-04-26T04:30:43;12.98;;;5.72;;
17818;SDS011;9034;50.284;19.310;2023-04-26T04:31:48;11.35;;;5.95;;
17818;SDS011;9034;50.284;19.310;2023-04-26T04:32:51;11.63;;;5.82;;
17818;SDS011;9034;50.284;19.310;2023-04-26T04:33:54;9.50;;;5.70;;
17818;SDS011;9034;50.284;19.310;2023-04-26T04:34:57;9.85;;;5.53;;
17818;SDS011;9034;50.284;19.310;2023-04-26T04:35:59;12.60;;;5.35;;
17818;SDS011;9034;50.284;19.310;2023-04-26T04:37:02;11.30;;;5.65;;
17818;SDS011;9034;50.284;19.310;2023-04-26T04:38:06;12.45;;;4.85;;
17818;SDS011;9034;50.284;19.310;2023-04-26T04:39:09;9.65;;;5.80;;
17818;SDS011;9034;50.284;19.310;2023-04-26T04:40:17;11.13;;;5.78;;
17818;SDS011;9034;50.284;19.310;2023-04-26T04:41:22;11.80;;;5.20;;
17818;SDS011;9034;50.284;19.310;2023-04-26T04:42:24;9.65;;;4.78;;
17818;SDS011;9034;50.284;19.310;2023-04-26T04:43:30;10.43;;;5.38;;
17818;SDS011;9034;50.284;19.310;2023-04-26T04:44:34;12.90;;;6.30;;
17818;SDS011;9034;50.284;19.310;2023-04-26T04:45:37;8.13;;;5.45;;
17818;SDS011;9034;50.284;19.310;2023-04-26T04:46:40;9.60;;;5.40;;
17818;SDS011;9034;50.284;19.310;2023-04-26T04:47:43;11.70;;;5.78;;
17818;SDS011;9034;50.284;19.310;2023-04-26T04:48:46;12.32;;;4.75;;
17818;SDS011;9034;50.284;19.310;2023-04-26T04:49:48;7.57;;;5.50;;
17818;SDS011;9034;50.284;19.310;2023-04-26T04:50:54;11.95;;;4.75;;
17818;SDS011;9034;50.284;19.310;2023-04-26T04:51:56;14.95;;;5.70;;
17818;SDS011;9034;50.284;19.310;2023-04-26T04:52:59;10.75;;;4.93;;
17818;SDS011;9034;50.284;19.310;2023-04-26T04:54:07;9.20;;;5.72;;
17818;SDS011;9034;50.284;19.310;2023-04-26T04:55:11;10.80;;;5.63;;
17818;SDS011;9034;50.284;19.310;2023-04-26T04:56:14;9.77;;;4.97;;
17818;SDS011;9034;50.284;19.310;2023-04-26T04:57:19;10.35;;;5.72;;
17818;SDS011;9034;50.284;19.310;2023-04-26T04:58:21;10.07;;;5.50;;
17818;SDS011;9034;50.284;19.310;2023-04-26T04:59:24;9.98;;;5.18;;
17818;SDS011;9034;50.284;19.310;2023-04-26T05:00:26;12.15;;;5.43;;
17818;SDS011;9034;50.284;19.310;2023-04-26T05:01:36;10.27;;;5.82;;
17818;SDS011;9034;50.284;19.310;2023-04-26T05:02:44;10.55;;;5.68;;
17818;SDS011;9034;50.284;19.310;2023-04-26T05:03:49;8.48;;;5.60;;
17818;SDS011;9034;50.284;19.310;2023-04-26T05:04:52;11.80;;;5.45;;
17818;SDS011;9034;50.284;19.310;2023-04-26T05:05:55;9.13;;;5.63;;
17818;SDS011;9034;50.284;19.310;2023-04-26T05:06:58;6.97;;;4.60;;
17818;SDS011;9034;50.284;19.310;2023-04-26T05:08:02;9.07;;;4.80;;
17818;SDS011;9034;50.284;19.310;2023-04-26T05:09:04;9.10;;;5.22;;
17818;SDS011;9034;50.284;19.310;2023-04-26T05:10:09;8.48;;;4.32;;
17818;SDS011;9034;50.284;19.310;2023-04-26T05:11:12;7.30;;;4.65;;
17818;SDS011;9034;50.284;19.310;2023-04-26T05:12:15;12.60;;;5.10;;
17818;SDS011;9034;50.284;19.310;2023-04-26T05:13:17;7.38;;;4.05;;
17818;SDS011;9034;50.284;19.310;2023-04-26T05:14:19;13.18;;;4.30;;
17818;SDS011;9034;50.284;19.310;2023-04-26T05:15:21;5.93;;;3.85;;
17818;SDS011;9034;50.284;19.310;2023-04-26T05:16:24;9.23;;;4.50;;
17818;SDS011;9034;50.284;19.310;2023-04-26T05:17:27;8.77;;;3.90;;
17818;SDS011;9034;50.284;19.310;2023-04-26T05:18:32;10.77;;;3.95;;
17818;SDS011;9034;50.284;19.310;2023-04-26T05:19:35;6.65;;;3.70;;
17818;SDS011;9034;50.284;19.310;2023-04-26T05:20:38;11.60;;;4.15;;
17818;SDS011;9034;50.284;19.310;2023-04-26T05:21:40;5.10;;;2.78;;
17818;SDS011;9034;50.284;19.310;2023-04-26T05:22:43;6.68;;;3.58;;
17818;SDS011;9034;50.284;19.310;2023-04-26T05:23:45;6.47;;;2.85;;
17818;SDS011;9034;50.284;19.310;2023-04-26T05:24:48;5.03;;;2.65;;
17818;SDS011;9034;50.284;19.310;2023-04-26T05:25:50;9.35;;;3.42;;
17818;SDS011;9034;50.284;19.310;2023-04-26T05:27:15;7.25;;;3.30;;
17818;SDS011;9034;50.284;19.310;2023-04-26T05:28:27;6.25;;;2.60;;
17818;SDS011;9034;50.284;19.310;2023-04-26T05:29:48;5.18;;;2.45;;
17818;SDS011;9034;50.284;19.310;2023-04-26T05:31:17;5.82;;;3.00;;
17818;SDS011;9034;50.284;19.310;2023-04-26T05:32:32;6.75;;;2.90;;
17818;SDS011;9034;50.284;19.310;2023-04-26T05:33:56;5.43;;;3.08;;
17818;SDS011;9034;50.284;19.310;2023-04-26T05:35:05;6.50;;;2.90;;
17818;SDS011;9034;50.284;19.310;2023-04-26T05:36:07;7.97;;;2.78;;
17818;SDS011;9034;50.284;19.310;2023-04-26T05:37:11;5.07;;;3.08;;
17818;SDS011;9034;50.284;19.310;2023-04-26T05:38:13;7.40;;;3.03;;
17818;SDS011;9034;50.284;19.310;2023-04-26T05:39:16;12.00;;;3.05;;
17818;SDS011;9034;50.284;19.310;2023-04-26T05:40:18;7.03;;;2.50;;
17818;SDS011;9034;50.284;19.310;2023-04-26T05:41:21;6.32;;;3.28;;
17818;SDS011;9034;50.284;19.310;2023-04-26T05:42:22;5.97;;;2.88;;
17818;SDS011;9034;50.284;19.310;2023-04-26T05:43:25;8.73;;;2.92;;
17818;SDS011;9034;50.284;19.310;2023-04-26T05:44:27;5.07;;;3.13;;
17818;SDS011;9034;50.284;19.310;2023-04-26T05:45:30;8.38;;;2.60;;
17818;SDS011;9034;50.284;19.310;2023-04-26T05:46:33;6.80;;;2.50;;
17818;SDS011;9034;50.284;19.310;2023-04-26T05:47:36;10.35;;;3.55;;
17818;SDS011;9034;50.284;19.310;2023-04-26T05:48:39;5.72;;;2.78;;
17818;SDS011;9034;50.284;19.310;2023-04-26T05:49:42;11.25;;;3.13;;
17818;SDS011;9034;50.284;19.310;2023-04-26T05:50:45;7.25;;;2.72;;
17818;SDS011;9034;50.284;19.310;2023-04-26T05:51:48;8.20;;;3.03;;
17818;SDS011;9034;50.284;19.310;2023-04-26T05:52:51;8.57;;;3.20;;
17818;SDS011;9034;50.284;19.310;2023-04-26T05:53:52;8.43;;;2.75;;
17818;SDS011;9034;50.284;19.310;2023-04-26T05:54:56;7.18;;;2.95;;
17818;SDS011;9034;50.284;19.310;2023-04-26T05:55:58;7.85;;;3.35;;
17818;SDS011;9034;50.284;19.310;2023-04-26T05:57:02;8.05;;;3.13;;
17818;SDS011;9034;50.284;19.310;2023-04-26T05:58:04;7.60;;;2.80;;
17818;SDS011;9034;50.284;19.310;2023-04-26T05:59:07;9.32;;;3.20;;
17818;SDS011;9034;50.284;19.310;2023-04-26T06:00:09;9.57;;;3.38;;
17818;SDS011;9034;50.284;19.310;2023-04-26T06:01:16;7.10;;;3.30;;
17818;SDS011;9034;50.284;19.310;2023-04-26T06:02:19;6.15;;;2.85;;
17818;SDS011;9034;50.284;19.310;2023-04-26T06:03:21;9.48;;;3.53;;
17818;SDS011;9034;50.284;19.310;2023-04-26T06:04:25;9.20;;;3.20;;
17818;SDS011;9034;50.284;19.310;2023-04-26T06:05:38;5.32;;;3.20;;
17818;SDS011;9034;50.284;19.310;2023-04-26T06:06:42;9.00;;;3.53;;
17818;SDS011;9034;50.284;19.310;2023-04-26T06:07:45;7.05;;;2.90;;
17818;SDS011;9034;50.284;19.310;2023-04-26T06:08:47;10.13;;;3.60;;
17818;SDS011;9034;50.284;19.310;2023-04-26T06:09:50;8.02;;;2.95;;
17818;SDS011;9034;50.284;19.310;2023-04-26T06:10:51;5.63;;;2.45;;
17818;SDS011;9034;50.284;19.310;2023-04-26T06:11:54;11.68;;;3.08;;
17818;SDS011;9034;50.284;19.310;2023-04-26T06:12:57;5.72;;;2.83;;
17818;SDS011;9034;50.284;19.310;2023-04-26T06:14:03;9.07;;;3.10;;
17818;SDS011;9034;50.284;19.310;2023-04-26T06:15:05;5.18;;;2.55;;
17818;SDS011;9034;50.284;19.310;2023-04-26T06:16:11;6.60;;;3.10;;
17818;SDS011;9034;50.284;19.310;2023-04-26T06:17:13;7.45;;;3.28;;
17818;SDS011;9034;50.284;19.310;2023-04-26T06:18:17;6.15;;;2.85;;
17818;SDS011;9034;50.284;19.310;2023-04-26T06:19:20;7.93;;;2.67;;